createdAt,value
2018-06-14T00:00:54.055Z,64.40
2018-06-14T00:03:23.017Z,64.50
2018-06-14T00:05:52.017Z,64.30
2018-06-14T00:08:20.980Z,64.50
2018-06-14T00:10:50.228Z,64.70
2018-06-14T00:13:19.222Z,64.60
2018-06-14T00:18:16.272Z,64.90
2018-06-14T00:20:45.252Z,65.00
2018-06-14T00:23:14.509Z,65.20
2018-06-14T00:25:43.426Z,65.20
2018-06-14T00:28:12.453Z,65.00
2018-06-14T00:30:41.420Z,65.00
2018-06-14T00:33:10.484Z,65.20
2018-06-14T00:35:39.522Z,65.20
2018-06-14T00:38:08.759Z,65.40
2018-06-14T00:40:37.733Z,65.50
2018-06-14T00:43:06.740Z,65.40
2018-06-14T00:45:36.002Z,65.80
2018-06-14T00:48:04.878Z,65.90
2018-06-14T00:50:34.202Z,65.90
2018-06-14T00:53:03.689Z,65.80
2018-06-14T00:55:32.873Z,65.80
2018-06-14T00:58:01.902Z,66.00
2018-06-14T01:00:30.654Z,66.30
2018-06-14T01:02:59.772Z,66.30
2018-06-14T01:05:29.084Z,66.20
2018-06-14T01:07:58.189Z,66.70
2018-06-14T01:10:26.986Z,66.80
2018-06-14T01:12:55.947Z,67.00
2018-06-14T01:15:24.851Z,66.90
2018-06-14T01:17:54.095Z,66.80
2018-06-14T01:20:23.042Z,66.80
2018-06-14T01:22:51.970Z,67.20
2018-06-14T01:25:20.819Z,67.00
2018-06-14T01:27:50.049Z,66.90
2018-06-14T01:30:19.278Z,67.10
2018-06-14T01:32:50.421Z,67.20
2018-06-14T01:38:25.025Z,67.30
2018-06-14T01:40:53.936Z,67.50
2018-06-14T01:43:23.670Z,67.50
2018-06-14T01:45:52.134Z,67.40
2018-06-14T01:48:20.585Z,67.40
2018-06-14T01:50:49.127Z,67.50
2018-06-14T01:53:18.673Z,67.50
2018-06-14T01:55:47.147Z,67.60
2018-06-14T01:58:15.672Z,68.10
2018-06-14T02:00:44.244Z,68.40
2018-06-14T02:03:12.853Z,68.50
2018-06-14T02:05:41.420Z,68.70
2018-06-14T02:08:09.940Z,69.10
2018-06-14T02:10:39.408Z,69.10
2018-06-14T02:13:07.972Z,68.90
2018-06-14T02:15:36.556Z,69.00
2018-06-14T02:18:05.104Z,69.70
2018-06-14T02:20:33.550Z,69.00
2018-06-14T02:23:02.070Z,69.10
2018-06-14T02:25:30.613Z,69.20
2018-06-14T02:27:59.229Z,69.30
2018-06-14T02:30:27.809Z,69.10
2018-06-14T02:32:56.540Z,69.10
2018-06-14T02:35:24.920Z,69.40
2018-06-14T02:37:53.443Z,69.70
2018-06-14T02:40:22.158Z,69.70
2018-06-14T02:42:50.739Z,69.40
2018-06-14T02:45:19.334Z,69.70
2018-06-14T02:47:47.909Z,70.50
2018-06-14T02:50:16.365Z,70.20
2018-06-14T02:52:44.810Z,70.10
2018-06-14T02:55:13.395Z,70.40
2018-06-14T02:57:42.076Z,70.20
2018-06-14T03:00:10.693Z,70.30
2018-06-14T03:02:39.341Z,70.60
2018-06-14T03:05:07.922Z,71.10
2018-06-14T03:07:36.896Z,71.50
2018-06-14T03:10:06.285Z,71.60
2018-06-14T03:12:34.863Z,71.50
2018-06-14T03:15:03.836Z,71.20
2018-06-14T03:17:32.281Z,71.10
2018-06-14T03:20:00.728Z,71.40
2018-06-14T03:22:29.260Z,71.70
2018-06-14T03:24:58.017Z,71.30
2018-06-14T03:27:26.609Z,71.70
2018-06-14T03:29:55.049Z,72.10
2018-06-14T03:32:23.495Z,71.40
2018-06-14T03:34:51.997Z,72.00
2018-06-14T03:37:20.585Z,72.00
2018-06-14T03:39:49.269Z,72.30
2018-06-14T03:42:18.880Z,71.50
2018-06-14T03:44:47.304Z,72.00
2018-06-14T03:47:15.923Z,71.80
2018-06-14T03:49:44.533Z,71.30
2018-06-14T03:52:13.629Z,71.60
2018-06-14T03:54:42.201Z,71.80
2018-06-14T03:57:11.145Z,71.30
2018-06-14T03:59:39.720Z,71.60
2018-06-14T04:02:08.262Z,71.90
2018-06-14T04:04:36.829Z,72.50
2018-06-14T04:07:05.600Z,72.20
2018-06-14T04:09:34.197Z,72.90
2018-06-14T04:12:02.665Z,72.50
2018-06-14T04:14:31.280Z,72.60
2018-06-14T04:16:59.708Z,72.30
2018-06-14T04:19:28.271Z,72.50
2018-06-14T04:21:56.974Z,72.60
2018-06-14T04:24:25.590Z,72.50
2018-06-14T04:26:54.006Z,72.90
2018-06-14T04:29:22.685Z,72.40
2018-06-14T04:31:51.185Z,72.70
2018-06-14T04:34:20.745Z,72.30
2018-06-14T04:36:49.303Z,72.40
2018-06-14T04:39:17.764Z,72.40
2018-06-14T04:41:46.230Z,72.60
2018-06-14T04:44:14.736Z,72.60
2018-06-14T04:46:43.748Z,72.50
2018-06-14T04:49:12.378Z,72.60
2018-06-14T04:51:41.808Z,72.40
2018-06-14T04:54:10.416Z,71.70
2018-06-14T04:56:38.981Z,71.70
2018-06-14T04:59:07.532Z,71.50
2018-06-14T05:01:36.125Z,72.00
2018-06-14T05:04:04.729Z,71.70
2018-06-14T05:06:33.372Z,71.50
2018-06-14T05:09:01.945Z,70.80
2018-06-14T05:11:30.377Z,71.80
2018-06-14T05:13:59.006Z,71.50
2018-06-14T05:16:27.541Z,71.40
2018-06-14T05:18:56.238Z,70.30
2018-06-14T05:21:24.677Z,70.00
2018-06-14T05:23:53.265Z,69.40
2018-06-14T05:26:21.848Z,68.80
2018-06-14T05:28:50.570Z,70.20
2018-06-14T05:31:24.848Z,68.20
2018-06-14T05:33:53.425Z,67.70
2018-06-14T05:36:22.789Z,67.20
2018-06-14T05:38:52.858Z,66.50
2018-06-14T05:41:21.241Z,66.40
2018-06-14T05:43:49.800Z,66.70
2018-06-14T05:46:18.244Z,66.80
2018-06-14T05:48:46.717Z,66.10
2018-06-14T05:51:15.192Z,66.10
2018-06-14T05:53:43.568Z,66.80
2018-06-14T05:56:11.986Z,67.10
2018-06-14T05:58:40.927Z,66.80
2018-06-14T06:01:09.525Z,66.00
2018-06-14T06:03:38.021Z,65.70
2018-06-14T06:06:06.526Z,66.40
2018-06-14T06:08:35.010Z,66.30
2018-06-14T06:11:03.619Z,65.40
2018-06-14T06:13:32.117Z,64.70
2018-06-14T06:16:00.576Z,65.30
2018-06-14T06:18:29.024Z,64.50
2018-06-14T06:20:57.485Z,65.10
2018-06-14T06:23:26.061Z,63.80
2018-06-14T06:25:54.557Z,63.70
2018-06-14T06:28:23.080Z,63.00
2018-06-14T06:30:51.522Z,63.20
2018-06-14T06:33:20.011Z,63.30
2018-06-14T06:35:48.564Z,62.60
2018-06-14T06:38:17.021Z,62.70
2018-06-14T06:40:45.597Z,61.50
2018-06-14T06:43:14.164Z,61.70
2018-06-14T06:45:42.657Z,61.80
2018-06-14T06:48:12.300Z,60.10
2018-06-14T06:50:40.912Z,61.00
2018-06-14T06:53:09.490Z,60.40
2018-06-14T06:55:37.921Z,59.20
2018-06-14T06:58:06.316Z,59.80
2018-06-14T07:00:34.762Z,56.90
2018-06-14T07:03:03.237Z,55.70
2018-06-14T07:05:31.736Z,57.50
2018-06-14T07:08:00.180Z,57.20
2018-06-14T07:10:28.677Z,57.90
2018-06-14T07:12:57.163Z,56.30
2018-06-14T07:15:25.618Z,56.80
2018-06-14T07:17:54.125Z,55.40
2018-06-14T07:20:22.583Z,54.40
2018-06-14T07:22:51.164Z,53.00
2018-06-14T07:25:19.524Z,52.80
2018-06-14T07:27:48.015Z,54.70
2018-06-14T07:30:16.435Z,55.40
2018-06-14T07:32:45.013Z,53.80
2018-06-14T07:35:13.479Z,52.40
2018-06-14T07:37:48.829Z,53.20
2018-06-14T07:40:17.524Z,52.80
2018-06-14T07:42:45.942Z,51.80
2018-06-14T07:45:14.492Z,52.30
2018-06-14T07:47:42.959Z,51.90
2018-06-14T07:50:11.421Z,51.00
2018-06-14T07:52:39.856Z,51.00
2018-06-14T07:55:08.324Z,50.40
2018-06-14T07:57:36.679Z,50.00
2018-06-14T08:00:05.194Z,50.80
2018-06-14T08:02:33.568Z,49.20
2018-06-14T08:05:01.997Z,51.80
2018-06-14T08:07:30.383Z,49.30
2018-06-14T08:09:58.880Z,49.40
2018-06-14T08:12:27.450Z,50.40
2018-06-14T08:14:55.899Z,50.40
2018-06-14T08:17:24.469Z,50.20
2018-06-14T08:19:52.940Z,50.20
2018-06-14T08:22:21.489Z,48.80
2018-06-14T08:27:17.937Z,49.50
2018-06-14T08:29:46.347Z,49.80
2018-06-14T08:32:14.820Z,48.30
2018-06-14T08:34:43.285Z,48.10
2018-06-14T08:37:11.705Z,47.60
2018-06-14T08:39:40.132Z,47.30
2018-06-14T08:42:15.784Z,47.20
2018-06-14T08:44:44.246Z,48.60
2018-06-14T08:47:12.680Z,47.50
2018-06-14T08:49:41.060Z,47.60
2018-06-14T08:52:09.505Z,47.30
2018-06-14T08:54:39.655Z,47.10
2018-06-14T08:57:08.140Z,47.10
2018-06-14T08:59:36.520Z,47.90
2018-06-14T09:02:05.081Z,48.10
2018-06-14T09:04:33.777Z,47.70
2018-06-14T09:07:02.241Z,46.10
2018-06-14T09:09:30.633Z,46.20
2018-06-14T09:11:59.152Z,46.10
2018-06-14T09:14:27.504Z,45.10
2018-06-14T09:16:55.988Z,45.80
2018-06-14T09:19:24.476Z,46.50
2018-06-14T09:21:52.999Z,46.50
2018-06-14T09:24:21.401Z,46.70
2018-06-14T09:26:49.932Z,45.80
2018-06-14T09:29:18.387Z,46.40
2018-06-14T09:31:46.822Z,46.00
2018-06-14T09:34:15.117Z,46.10
2018-06-14T09:36:43.516Z,45.30
2018-06-14T09:39:11.944Z,45.20
2018-06-14T09:41:42.384Z,44.90
2018-06-14T09:44:10.888Z,44.50
2018-06-14T09:46:39.352Z,44.20
2018-06-14T09:49:10.509Z,44.60
2018-06-14T09:51:39.509Z,44.80
2018-06-14T09:54:07.919Z,44.50
2018-06-14T09:56:36.436Z,45.20
2018-06-14T09:59:07.094Z,44.80
2018-06-14T10:01:35.593Z,44.50
2018-06-14T10:04:04.117Z,44.10
2018-06-14T10:06:32.661Z,44.30
2018-06-14T10:09:01.132Z,44.70
2018-06-14T10:11:29.634Z,44.10
2018-06-14T10:13:58.150Z,43.70
2018-06-14T10:16:26.601Z,44.00
2018-06-14T10:18:55.161Z,44.60
2018-06-14T10:21:23.649Z,44.50
2018-06-14T10:23:52.086Z,43.70
2018-06-14T10:26:20.500Z,43.60
2018-06-14T10:28:49.057Z,44.20
2018-06-14T10:31:17.444Z,43.60
2018-06-14T10:33:46.048Z,42.50
2018-06-14T10:36:14.273Z,43.20
2018-06-14T10:38:42.492Z,43.00
2018-06-14T10:41:10.754Z,42.50
2018-06-14T10:43:38.975Z,42.70
2018-06-14T10:46:07.347Z,41.60
2018-06-14T10:48:35.587Z,41.70
2018-06-14T10:51:03.831Z,41.80
2018-06-14T10:53:32.075Z,42.00
2018-06-14T10:56:00.317Z,41.10
2018-06-14T10:58:28.605Z,41.50
2018-06-14T11:00:56.879Z,41.90
2018-06-14T11:03:25.216Z,41.50
2018-06-14T11:05:53.557Z,41.60
2018-06-14T11:08:21.811Z,41.10
2018-06-14T11:10:50.092Z,41.60
2018-06-14T11:13:21.000Z,41.30
2018-06-14T11:15:49.227Z,41.50
2018-06-14T11:18:17.569Z,41.10
2018-06-14T11:20:45.772Z,41.30
2018-06-14T11:23:14.031Z,41.70
2018-06-14T11:25:42.274Z,41.00
2018-06-14T11:28:10.677Z,40.60
2018-06-14T11:30:40.932Z,41.00
2018-06-14T11:33:09.196Z,41.10
2018-06-14T11:35:37.517Z,41.00
2018-06-14T11:38:06.026Z,40.90
2018-06-14T11:40:34.916Z,40.20
2018-06-14T11:43:03.306Z,39.90
2018-06-14T11:45:31.709Z,40.10
2018-06-14T11:48:00.090Z,40.20
2018-06-14T11:50:28.532Z,39.70
2018-06-14T11:52:56.900Z,39.00
2018-06-14T11:55:25.300Z,39.90
2018-06-14T11:57:53.681Z,39.60
2018-06-14T12:00:22.078Z,39.70
2018-06-14T12:02:50.602Z,40.30
2018-06-14T12:05:19.065Z,39.90
2018-06-14T12:07:47.516Z,39.60
2018-06-14T12:10:15.928Z,40.10
2018-06-14T12:12:44.372Z,40.50
2018-06-14T12:15:12.924Z,40.10
2018-06-14T12:17:41.364Z,40.10
2018-06-14T12:20:09.787Z,40.40
2018-06-14T12:22:38.238Z,39.70
2018-06-14T12:25:06.660Z,39.90
2018-06-14T12:27:35.195Z,40.30
2018-06-14T12:30:03.613Z,39.90
2018-06-14T12:34:59.952Z,40.30
2018-06-14T12:37:28.429Z,40.00
2018-06-14T12:39:56.827Z,40.50
2018-06-14T12:42:25.247Z,40.00
2018-06-14T12:44:53.743Z,39.40
2018-06-14T12:47:22.164Z,40.10
2018-06-14T12:49:50.617Z,40.50
2018-06-14T12:52:19.156Z,40.20
2018-06-14T12:57:15.564Z,40.20
2018-06-14T12:59:44.013Z,39.60
2018-06-14T13:02:12.585Z,40.00
2018-06-14T13:04:41.065Z,39.90
2018-06-14T13:07:09.545Z,40.40
2018-06-14T13:12:05.969Z,39.20
2018-06-14T13:14:34.354Z,39.50
2018-06-14T13:17:02.796Z,39.60
2018-06-14T13:19:31.292Z,39.50
2018-06-14T13:21:59.721Z,39.60
2018-06-14T13:24:33.641Z,39.80
2018-06-14T13:27:02.041Z,39.70
2018-06-14T13:29:33.836Z,39.80
2018-06-14T13:32:02.220Z,39.50
2018-06-14T13:34:30.697Z,39.60
2018-06-14T13:36:59.253Z,39.70
2018-06-14T13:39:27.636Z,40.50
2018-06-14T13:41:56.115Z,40.10
2018-06-14T13:44:24.616Z,40.20
2018-06-14T13:46:53.021Z,40.30
2018-06-14T13:49:21.500Z,40.70
2018-06-14T13:51:49.909Z,40.80
2018-06-14T13:54:18.528Z,40.20
2018-06-14T13:56:47.974Z,40.70
2018-06-14T13:59:16.388Z,41.30
2018-06-14T14:01:45.089Z,41.40
2018-06-14T14:04:13.417Z,40.80
2018-06-14T14:06:41.847Z,41.10
2018-06-14T14:09:11.744Z,41.00
2018-06-14T14:14:08.196Z,41.50
2018-06-14T14:16:36.618Z,41.70
2018-06-14T14:19:07.099Z,41.80
2018-06-14T14:24:03.565Z,42.20
2018-06-14T14:26:31.916Z,42.30
2018-06-14T14:29:00.316Z,42.10
2018-06-14T14:31:28.844Z,42.40
2018-06-14T14:33:57.305Z,42.80
2018-06-14T14:36:25.700Z,43.30
2018-06-14T14:38:54.220Z,44.00
2018-06-14T14:41:22.792Z,44.90
2018-06-14T14:43:51.608Z,45.70
2018-06-14T14:46:19.985Z,46.60
2018-06-14T14:48:48.372Z,47.60
2018-06-14T14:51:16.795Z,47.60
2018-06-14T14:53:46.385Z,48.20
2018-06-14T14:56:14.916Z,49.20
2018-06-14T15:01:11.260Z,50.50
2018-06-14T15:06:07.744Z,51.70
2018-06-14T15:08:36.217Z,52.20
2018-06-14T15:11:05.037Z,52.70
2018-06-14T15:13:33.557Z,53.00
2018-06-14T15:16:02.031Z,53.30
2018-06-14T15:18:30.666Z,53.30
2018-06-14T15:20:59.170Z,53.60
2018-06-14T15:23:27.725Z,53.50
2018-06-14T15:25:56.404Z,53.70
2018-06-14T15:28:24.929Z,53.40
2018-06-14T15:30:53.344Z,53.20
2018-06-14T15:33:22.309Z,53.90
2018-06-14T15:35:50.713Z,54.20
2018-06-14T15:38:19.336Z,54.90
2018-06-14T15:40:47.839Z,55.30
2018-06-14T15:43:16.269Z,55.70
2018-06-14T15:45:44.704Z,56.00
2018-06-14T15:48:13.240Z,56.70
2018-06-14T15:50:41.726Z,56.60
2018-06-14T15:53:10.332Z,57.10
2018-06-14T15:56:11.109Z,57.30
2018-06-14T15:58:39.563Z,58.40
2018-06-14T16:01:08.437Z,58.70
2018-06-14T16:03:36.800Z,59.90
2018-06-14T16:06:05.244Z,59.40
2018-06-14T16:08:33.728Z,59.40
2018-06-14T16:13:30.131Z,58.40
2018-06-14T16:15:58.606Z,59.50
2018-06-14T16:18:27.029Z,59.10
2018-06-14T16:23:23.556Z,59.30
2018-06-14T16:25:52.032Z,59.80
2018-06-14T16:28:20.570Z,59.60
2018-06-14T16:30:49.087Z,60.20
2018-06-14T16:33:17.495Z,59.90
2018-06-14T16:35:45.900Z,59.70
2018-06-14T16:38:14.605Z,59.80
2018-06-14T16:40:43.045Z,60.70
2018-06-14T16:45:39.760Z,61.50
2018-06-14T16:48:08.180Z,61.40
2018-06-14T16:50:36.614Z,61.60
2018-06-14T16:53:05.486Z,61.70
2018-06-14T16:55:34.124Z,61.10
2018-06-14T16:58:02.672Z,61.70
2018-06-14T17:00:31.285Z,61.70
2018-06-14T17:03:00.885Z,62.10
2018-06-14T17:05:32.992Z,61.70
2018-06-14T17:08:01.447Z,61.90
2018-06-14T17:10:29.997Z,62.30
2018-06-14T17:12:58.459Z,62.40
2018-06-14T17:15:28.064Z,62.20
2018-06-14T17:17:56.477Z,62.60
2018-06-14T17:20:24.941Z,62.50
2018-06-14T17:22:53.887Z,62.90
2018-06-14T17:25:23.485Z,63.00
2018-06-14T17:27:51.933Z,63.10
2018-06-14T17:30:20.440Z,62.80
2018-06-14T17:32:48.962Z,63.70
2018-06-14T17:35:19.504Z,64.00
2018-06-14T17:37:50.398Z,64.20
2018-06-14T17:40:18.991Z,64.70
2018-06-14T17:42:47.404Z,64.60
2018-06-14T17:45:15.928Z,64.60
2018-06-14T17:47:44.476Z,64.70
2018-06-14T17:50:13.034Z,65.10
2018-06-14T17:52:42.632Z,65.00
2018-06-14T17:55:11.251Z,65.70
2018-06-14T17:57:39.616Z,65.50
2018-06-14T18:00:08.208Z,65.40
2018-06-14T18:02:36.714Z,65.70
2018-06-14T18:05:05.761Z,65.80
2018-06-14T18:07:34.340Z,65.80
2018-06-14T18:10:02.445Z,65.90
2018-06-14T18:12:31.898Z,66.00
2018-06-14T18:15:03.792Z,66.40
2018-06-14T18:17:32.165Z,66.70
2018-06-14T18:20:02.735Z,66.90
2018-06-14T18:22:31.248Z,66.40
2018-06-14T18:24:59.739Z,67.20
2018-06-14T18:27:28.250Z,67.40
2018-06-14T18:29:56.901Z,67.90
2018-06-14T18:32:25.477Z,67.90
2018-06-14T18:34:53.960Z,67.90
2018-06-14T18:37:22.419Z,67.70
2018-06-14T18:39:50.964Z,67.60
2018-06-14T18:42:19.425Z,68.30
2018-06-14T18:44:47.944Z,68.60
2018-06-14T18:47:16.449Z,68.80
2018-06-14T18:49:44.947Z,68.90
2018-06-14T18:52:21.368Z,68.70
2018-06-14T18:54:49.892Z,68.30
2018-06-14T18:57:18.388Z,69.30
2018-06-14T18:59:46.953Z,69.20
2018-06-14T19:02:15.541Z,69.60
2018-06-14T19:04:44.104Z,69.50
2018-06-14T19:07:12.576Z,70.10
2018-06-14T19:09:41.009Z,70.00
2018-06-14T19:12:09.684Z,70.20
2018-06-14T19:14:38.154Z,69.80
2018-06-14T19:17:06.696Z,70.40
2018-06-14T19:19:35.078Z,70.30
2018-06-14T19:22:03.577Z,70.30
2018-06-14T19:24:32.097Z,70.40
2018-06-14T19:27:00.735Z,70.50
2018-06-14T19:29:29.328Z,70.20
2018-06-14T19:31:59.154Z,70.40
2018-06-14T19:34:28.819Z,70.40
2018-06-14T19:36:57.495Z,70.50
2018-06-14T19:39:26.078Z,70.10
2018-06-14T19:41:54.565Z,70.10
2018-06-14T19:44:23.149Z,70.20
2018-06-14T19:46:51.676Z,70.30
2018-06-14T19:49:24.432Z,70.20
2018-06-14T19:51:53.454Z,70.20
2018-06-14T19:54:21.946Z,70.50
2018-06-14T19:56:50.384Z,70.40
2018-06-14T19:59:18.767Z,71.00
2018-06-14T20:01:47.016Z,71.00
2018-06-14T20:04:15.312Z,71.30
2018-06-14T20:06:43.649Z,71.90
2018-06-14T20:09:12.927Z,72.70
2018-06-14T20:11:41.239Z,72.80
2018-06-14T20:14:09.738Z,72.60
2018-06-14T20:16:38.108Z,72.90
2018-06-14T20:19:06.512Z,73.10
2018-06-14T20:21:35.128Z,73.00
2018-06-14T20:24:03.693Z,73.30
2018-06-14T20:26:32.151Z,73.00
2018-06-14T20:29:00.550Z,72.50
2018-06-14T20:31:29.113Z,72.80
2018-06-14T20:33:57.636Z,72.90
2018-06-14T20:36:26.112Z,73.10
2018-06-14T20:38:54.859Z,73.70
2018-06-14T20:41:23.300Z,74.50
2018-06-14T20:43:51.890Z,73.40
2018-06-14T20:46:20.296Z,73.80
2018-06-14T20:48:48.846Z,72.90
2018-06-14T20:51:17.262Z,73.30
2018-06-14T20:53:45.652Z,73.00
2018-06-14T20:56:14.215Z,73.30
2018-06-14T20:58:42.669Z,73.30
2018-06-14T21:01:11.329Z,73.60
2018-06-14T21:03:39.877Z,73.30
2018-06-14T21:06:09.488Z,73.00
2018-06-14T21:08:38.077Z,72.50
2018-06-14T21:11:06.538Z,72.50
2018-06-14T21:13:34.961Z,73.00
2018-06-14T21:16:03.532Z,73.00
2018-06-14T21:18:32.003Z,73.50
2018-06-14T21:21:02.571Z,73.30
2018-06-14T21:23:31.024Z,73.30
2018-06-14T21:25:59.465Z,73.50
2018-06-14T21:28:27.885Z,74.10
2018-06-14T21:30:56.389Z,75.30
2018-06-14T21:33:25.012Z,75.10
2018-06-14T21:35:53.312Z,75.80
2018-06-14T21:38:21.676Z,75.70
2018-06-14T21:40:50.188Z,75.50
2018-06-14T21:43:18.613Z,75.00
2018-06-14T21:45:47.044Z,74.90
2018-06-14T21:48:15.526Z,74.90
2018-06-14T21:50:43.880Z,74.90
2018-06-14T21:53:12.273Z,75.10
2018-06-14T21:55:41.025Z,75.20
2018-06-14T21:58:13.982Z,75.80
2018-06-14T22:00:42.539Z,76.30
2018-06-14T22:03:16.415Z,75.80
2018-06-14T22:05:44.821Z,75.50
2018-06-14T22:08:13.397Z,75.20
2018-06-14T22:10:41.885Z,75.70
2018-06-14T22:13:10.434Z,75.50
2018-06-14T22:15:38.909Z,75.80
2018-06-14T22:18:07.366Z,76.00
2018-06-14T22:20:36.914Z,76.80
2018-06-14T22:23:05.425Z,77.60
2018-06-14T22:25:33.853Z,76.70
2018-06-14T22:28:02.288Z,76.70
2018-06-14T22:30:30.693Z,77.00
2018-06-14T22:33:10.312Z,76.80
2018-06-14T22:35:38.784Z,77.20
2018-06-14T22:38:07.265Z,77.00
2018-06-14T22:40:35.758Z,77.50
2018-06-14T22:43:04.310Z,77.80
2018-06-14T22:45:32.816Z,77.90
2018-06-14T22:48:01.967Z,77.70
2018-06-14T22:50:41.568Z,77.50
2018-06-14T22:53:10.860Z,77.70
2018-06-14T22:55:39.485Z,77.80
2018-06-14T22:58:07.940Z,77.30
2018-06-14T23:01:48.170Z,77.50
2018-06-14T23:04:24.053Z,77.10
2018-06-14T23:06:52.524Z,76.60
2018-06-14T23:10:35.376Z,76.60
2018-06-14T23:13:04.400Z,76.70
2018-06-14T23:15:32.828Z,77.40
2018-06-14T23:18:01.435Z,78.00
2018-06-14T23:20:31.096Z,77.60
2018-06-14T23:23:00.406Z,78.40
2018-06-14T23:25:29.464Z,77.50
2018-06-14T23:27:58.020Z,77.20
2018-06-14T23:30:26.466Z,76.80
2018-06-14T23:32:54.980Z,77.30
2018-06-14T23:35:23.524Z,77.40
2018-06-14T23:37:51.940Z,77.30
2018-06-14T23:40:20.419Z,77.30
2018-06-14T23:42:48.950Z,77.50
2018-06-14T23:45:17.445Z,77.20
2018-06-14T23:47:46.274Z,77.10
2018-06-14T23:50:14.689Z,77.40
2018-06-14T23:52:43.145Z,77.30
2018-06-14T23:55:11.697Z,77.20
2018-06-14T23:57:40.299Z,77.40
